sensor_id;sensor_type;location;lat;lon;timestamp;P1;durP1;ratioP1;P2;durP2;ratioP2
73893;SDS011;62699;50.534;12.784;2022-09-09T02:04:56;2.63;;;1.40;;
73893;SDS011;62699;50.534;12.784;2022-09-09T02:10:24;3.10;;;1.30;;
73893;SDS011;62699;50.534;12.784;2022-09-09T02:15:55;3.08;;;1.40;;
73893;SDS011;62699;50.534;12.784;2022-09-09T02:21:19;3.47;;;1.50;;
73893;SDS011;62699;50.534;12.784;2022-09-09T02:26:40;1.77;;;1.30;;
73893;SDS011;62699;50.534;12.784;2022-09-09T02:32:02;3.33;;;1.33;;
73893;SDS011;62699;50.534;12.784;2022-09-09T02:37:27;2.08;;;1.30;;
73893;SDS011;62699;50.534;12.784;2022-09-09T02:42:50;2.50;;;1.45;;
73893;SDS011;62699;50.534;12.784;2022-09-09T02:59:17;2.25;;;1.25;;
73893;SDS011;62699;50.534;12.784;2022-09-09T03:04:38;2.60;;;1.23;;
73893;SDS011;62699;50.534;12.784;2022-09-09T03:09:57;3.30;;;1.13;;
73893;SDS011;62699;50.534;12.784;2022-09-09T03:15:17;2.60;;;1.30;;
73893;SDS011;62699;50.534;12.784;2022-09-09T03:20:37;2.05;;;1.30;;
73893;SDS011;62699;50.534;12.784;2022-09-09T03:25:56;2.10;;;1.23;;
73893;SDS011;62699;50.534;12.784;2022-09-09T03:31:17;3.33;;;1.25;;
73893;SDS011;62699;50.534;12.784;2022-09-09T03:36:39;2.83;;;1.50;;
73893;SDS011;62699;50.534;12.784;2022-09-09T03:41:59;2.40;;;1.42;;
73893;SDS011;62699;50.534;12.784;2022-09-09T03:47:22;1.20;;;1.10;;
73893;SDS011;62699;50.534;12.784;2022-09-09T03:52:42;3.05;;;1.98;;
73893;SDS011;62699;50.534;12.784;2022-09-09T03:58:01;5.20;;;1.35;;
73893;SDS011;62699;50.534;12.784;2022-09-09T04:08:39;2.80;;;1.30;;
73893;SDS011;62699;50.534;12.784;2022-09-09T04:13:58;1.55;;;1.08;;
73893;SDS011;62699;50.534;12.784;2022-09-09T04:19:18;1.77;;;1.25;;
73893;SDS011;62699;50.534;12.784;2022-09-09T04:24:37;1.92;;;1.20;;
73893;SDS011;62699;50.534;12.784;2022-09-09T04:29:57;2.90;;;1.50;;
73893;SDS011;62699;50.534;12.784;2022-09-09T04:35:17;1.73;;;1.30;;
73893;SDS011;62699;50.534;12.784;2022-09-09T04:40:38;1.40;;;1.20;;
73893;SDS011;62699;50.534;12.784;2022-09-09T04:46:00;3.03;;;1.35;;
73893;SDS011;62699;50.534;12.784;2022-09-09T04:51:20;3.30;;;1.67;;
73893;SDS011;62699;50.534;12.784;2022-09-09T04:56:39;1.50;;;1.30;;
73893;SDS011;62699;50.534;12.784;2022-09-09T05:02:01;2.15;;;1.40;;
73893;SDS011;62699;50.534;12.784;2022-09-09T05:07:22;3.40;;;1.85;;
73893;SDS011;62699;50.534;12.784;2022-09-09T05:12:41;6.32;;;1.83;;
73893;SDS011;62699;50.534;12.784;2022-09-09T05:23:21;5.60;;;1.73;;
73893;SDS011;62699;50.534;12.784;2022-09-09T05:28:41;3.47;;;1.80;;
73893;SDS011;62699;50.534;12.784;2022-09-09T05:34:01;4.15;;;1.73;;
73893;SDS011;62699;50.534;12.784;2022-09-09T05:50:01;2.75;;;1.25;;
73893;SDS011;62699;50.534;12.784;2022-09-09T05:55:20;2.88;;;1.50;;
73893;SDS011;62699;50.534;12.784;2022-09-09T06:05:59;5.20;;;1.88;;
73893;SDS011;62699;50.534;12.784;2022-09-09T06:11:29;2.45;;;1.35;;
73893;SDS011;62699;50.534;12.784;2022-09-09T06:16:55;3.25;;;1.73;;
73893;SDS011;62699;50.534;12.784;2022-09-09T06:22:15;5.38;;;1.80;;
73893;SDS011;62699;50.534;12.784;2022-09-09T06:27:36;4.82;;;1.60;;
73893;SDS011;62699;50.534;12.784;2022-09-09T06:32:55;9.60;;;2.03;;
73893;SDS011;62699;50.534;12.784;2022-09-09T06:38:14;3.80;;;1.60;;
73893;SDS011;62699;50.534;12.784;2022-09-09T06:43:34;7.10;;;1.70;;
73893;SDS011;62699;50.534;12.784;2022-09-09T06:48:54;6.10;;;1.50;;
73893;SDS011;62699;50.534;12.784;2022-09-09T06:54:14;5.18;;;1.80;;
73893;SDS011;62699;50.534;12.784;2022-09-09T06:59:34;6.03;;;1.80;;
73893;SDS011;62699;50.534;12.784;2022-09-09T07:04:53;2.70;;;1.52;;
73893;SDS011;62699;50.534;12.784;2022-09-09T07:10:13;3.08;;;1.63;;
73893;SDS011;62699;50.534;12.784;2022-09-09T07:15:32;3.67;;;1.40;;
73893;SDS011;62699;50.534;12.784;2022-09-09T07:20:56;2.75;;;1.50;;
73893;SDS011;62699;50.534;12.784;2022-09-09T07:26:16;2.40;;;1.40;;
73893;SDS011;62699;50.534;12.784;2022-09-09T07:31:41;6.10;;;2.05;;
73893;SDS011;62699;50.534;12.784;2022-09-09T07:37:00;4.55;;;1.83;;
73893;SDS011;62699;50.534;12.784;2022-09-09T07:42:43;3.03;;;1.70;;
73893;SDS011;62699;50.534;12.784;2022-09-09T07:48:02;3.42;;;1.80;;
73893;SDS011;62699;50.534;12.784;2022-09-09T07:53:22;4.10;;;1.98;;
73893;SDS011;62699;50.534;12.784;2022-09-09T07:58:42;3.97;;;1.95;;
73893;SDS011;62699;50.534;12.784;2022-09-09T08:04:09;5.05;;;1.70;;
73893;SDS011;62699;50.534;12.784;2022-09-09T08:09:33;3.83;;;1.52;;
73893;SDS011;62699;50.534;12.784;2022-09-09T08:14:53;5.95;;;1.60;;
73893;SDS011;62699;50.534;12.784;2022-09-09T08:20:12;4.53;;;1.60;;
73893;SDS011;62699;50.534;12.784;2022-09-09T08:25:32;7.60;;;1.80;;
73893;SDS011;62699;50.534;12.784;2022-09-09T08:30:53;2.47;;;1.40;;
73893;SDS011;62699;50.534;12.784;2022-09-09T08:36:17;4.65;;;1.70;;
73893;SDS011;62699;50.534;12.784;2022-09-09T08:41:58;3.55;;;1.52;;
73893;SDS011;62699;50.534;12.784;2022-09-09T08:53:38;6.93;;;1.70;;
73893;SDS011;62699;50.534;12.784;2022-09-09T08:59:02;4.13;;;1.85;;
73893;SDS011;62699;50.534;12.784;2022-09-09T09:10:10;3.03;;;1.50;;
73893;SDS011;62699;50.534;12.784;2022-09-09T09:15:40;6.80;;;1.80;;
73893;SDS011;62699;50.534;12.784;2022-09-09T09:21:14;4.95;;;1.58;;
73893;SDS011;62699;50.534;12.784;2022-09-09T09:26:38;2.50;;;1.10;;
73893;SDS011;62699;50.534;12.784;2022-09-09T09:31:58;3.72;;;1.45;;
73893;SDS011;62699;50.534;12.784;2022-09-09T09:37:26;3.55;;;1.30;;
73893;SDS011;62699;50.534;12.784;2022-09-09T09:42:49;4.60;;;1.48;;
73893;SDS011;62699;50.534;12.784;2022-09-09T09:48:12;3.30;;;1.10;;
73893;SDS011;62699;50.534;12.784;2022-09-09T09:53:34;5.20;;;1.20;;
73893;SDS011;62699;50.534;12.784;2022-09-09T09:58:55;3.50;;;1.33;;
73893;SDS011;62699;50.534;12.784;2022-09-09T10:04:16;4.80;;;1.55;;
73893;SDS011;62699;50.534;12.784;2022-09-09T10:09:38;2.92;;;1.15;;
73893;SDS011;62699;50.534;12.784;2022-09-09T10:15:07;4.57;;;1.30;;
73893;SDS011;62699;50.534;12.784;2022-09-09T10:37:41;3.78;;;1.23;;
73893;SDS011;62699;50.534;12.784;2022-09-09T10:54:30;4.80;;;1.40;;
73893;SDS011;62699;50.534;12.784;2022-09-09T11:00:03;4.22;;;1.23;;
73893;SDS011;62699;50.534;12.784;2022-09-09T11:16:28;3.75;;;1.30;;
73893;SDS011;62699;50.534;12.784;2022-09-09T11:21:52;2.67;;;1.37;;
73893;SDS011;62699;50.534;12.784;2022-09-09T11:27:18;3.85;;;1.40;;
73893;SDS011;62699;50.534;12.784;2022-09-09T11:38:33;4.53;;;1.67;;
73893;SDS011;62699;50.534;12.784;2022-09-09T11:43:55;3.95;;;1.40;;
73893;SDS011;62699;50.534;12.784;2022-09-09T11:55:11;2.80;;;1.10;;
73893;SDS011;62699;50.534;12.784;2022-09-09T12:00:51;3.63;;;1.30;;
73893;SDS011;62699;50.534;12.784;2022-09-09T12:11:52;2.90;;;1.13;;
73893;SDS011;62699;50.534;12.784;2022-09-09T12:39:51;4.70;;;1.30;;
73893;SDS011;62699;50.534;12.784;2022-09-09T12:50:44;3.28;;;1.63;;
73893;SDS011;62699;50.534;12.784;2022-09-09T12:56:06;2.25;;;1.40;;
73893;SDS011;62699;50.534;12.784;2022-09-09T13:01:31;2.85;;;1.33;;
73893;SDS011;62699;50.534;12.784;2022-09-09T13:06:51;4.15;;;1.20;;
73893;SDS011;62699;50.534;12.784;2022-09-09T13:12:16;2.35;;;1.10;;
73893;SDS011;62699;50.534;12.784;2022-09-09T13:17:38;1.38;;;1.10;;
73893;SDS011;62699;50.534;12.784;2022-09-09T13:23:00;2.40;;;1.27;;
73893;SDS011;62699;50.534;12.784;2022-09-09T13:28:22;3.47;;;1.17;;
73893;SDS011;62699;50.534;12.784;2022-09-09T13:33:43;1.08;;;1.00;;
73893;SDS011;62699;50.534;12.784;2022-09-09T13:39:03;1.45;;;1.10;;
73893;SDS011;62699;50.534;12.784;2022-09-09T13:44:24;1.55;;;1.20;;
73893;SDS011;62699;50.534;12.784;2022-09-09T13:49:46;3.42;;;1.30;;
73893;SDS011;62699;50.534;12.784;2022-09-09T13:55:07;2.25;;;1.30;;
73893;SDS011;62699;50.534;12.784;2022-09-09T14:06:20;2.17;;;1.30;;
73893;SDS011;62699;50.534;12.784;2022-09-09T14:11:41;2.35;;;1.40;;
73893;SDS011;62699;50.534;12.784;2022-09-09T14:17:01;4.47;;;1.52;;
73893;SDS011;62699;50.534;12.784;2022-09-09T14:22:20;3.60;;;1.73;;
73893;SDS011;62699;50.534;12.784;2022-09-09T14:27:40;2.55;;;1.40;;
73893;SDS011;62699;50.534;12.784;2022-09-09T14:33:01;5.60;;;1.80;;
73893;SDS011;62699;50.534;12.784;2022-09-09T14:38:21;2.58;;;1.60;;
73893;SDS011;62699;50.534;12.784;2022-09-09T14:43:40;4.22;;;1.50;;
73893;SDS011;62699;50.534;12.784;2022-09-09T14:49:00;3.20;;;1.63;;
73893;SDS011;62699;50.534;12.784;2022-09-09T14:54:19;2.83;;;1.30;;
73893;SDS011;62699;50.534;12.784;2022-09-09T14:59:40;4.00;;;1.42;;
73893;SDS011;62699;50.534;12.784;2022-09-09T15:04:59;2.50;;;1.20;;
73893;SDS011;62699;50.534;12.784;2022-09-09T15:10:18;2.70;;;1.13;;
73893;SDS011;62699;50.534;12.784;2022-09-09T15:15:37;3.05;;;1.33;;
73893;SDS011;62699;50.534;12.784;2022-09-09T15:20:57;1.80;;;1.20;;
73893;SDS011;62699;50.534;12.784;2022-09-09T15:26:16;2.33;;;1.33;;
73893;SDS011;62699;50.534;12.784;2022-09-09T15:31:36;4.47;;;1.60;;
73893;SDS011;62699;50.534;12.784;2022-09-09T15:36:55;2.22;;;1.40;;
73893;SDS011;62699;50.534;12.784;2022-09-09T15:42:14;2.45;;;1.20;;
73893;SDS011;62699;50.534;12.784;2022-09-09T15:47:33;3.38;;;1.60;;
73893;SDS011;62699;50.534;12.784;2022-09-09T15:52:53;3.17;;;1.30;;
73893;SDS011;62699;50.534;12.784;2022-09-09T15:58:12;3.53;;;1.60;;
73893;SDS011;62699;50.534;12.784;2022-09-09T16:03:34;6.05;;;1.50;;
73893;SDS011;62699;50.534;12.784;2022-09-09T16:08:58;3.33;;;1.20;;
73893;SDS011;62699;50.534;12.784;2022-09-09T16:14:19;1.92;;;1.25;;
73893;SDS011;62699;50.534;12.784;2022-09-09T16:19:38;1.95;;;1.30;;
73893;SDS011;62699;50.534;12.784;2022-09-09T16:24:57;2.47;;;1.13;;
73893;SDS011;62699;50.534;12.784;2022-09-09T16:30:17;4.75;;;1.40;;
73893;SDS011;62699;50.534;12.784;2022-09-09T16:35:36;2.90;;;1.50;;
73893;SDS011;62699;50.534;12.784;2022-09-09T16:41:00;3.85;;;1.38;;
73893;SDS011;62699;50.534;12.784;2022-09-09T16:46:20;4.00;;;1.60;;
73893;SDS011;62699;50.534;12.784;2022-09-09T16:51:42;1.98;;;1.10;;
73893;SDS011;62699;50.534;12.784;2022-09-09T16:57:03;1.75;;;1.40;;
73893;SDS011;62699;50.534;12.784;2022-09-09T17:02:22;2.40;;;1.27;;
73893;SDS011;62699;50.534;12.784;2022-09-09T17:07:42;3.78;;;1.35;;
73893;SDS011;62699;50.534;12.784;2022-09-09T17:13:02;3.72;;;1.60;;
73893;SDS011;62699;50.534;12.784;2022-09-09T17:18:22;3.65;;;1.52;;
73893;SDS011;62699;50.534;12.784;2022-09-09T17:23:46;4.68;;;1.38;;
73893;SDS011;62699;50.534;12.784;2022-09-09T17:29:06;8.25;;;2.88;;
73893;SDS011;62699;50.534;12.784;2022-09-09T17:34:25;3.60;;;1.75;;
73893;SDS011;62699;50.534;12.784;2022-09-09T17:39:44;6.13;;;1.83;;
73893;SDS011;62699;50.534;12.784;2022-09-09T17:45:03;4.30;;;1.50;;
73893;SDS011;62699;50.534;12.784;2022-09-09T17:50:24;3.05;;;1.60;;
73893;SDS011;62699;50.534;12.784;2022-09-09T17:55:43;3.95;;;2.00;;
73893;SDS011;62699;50.534;12.784;2022-09-09T18:06:39;4.25;;;1.95;;
73893;SDS011;62699;50.534;12.784;2022-09-09T18:12:03;3.53;;;1.77;;
73893;SDS011;62699;50.534;12.784;2022-09-09T18:17:23;4.50;;;2.53;;
73893;SDS011;62699;50.534;12.784;2022-09-09T18:22:43;3.88;;;2.00;;
73893;SDS011;62699;50.534;12.784;2022-09-09T18:28:02;6.10;;;2.40;;
73893;SDS011;62699;50.534;12.784;2022-09-09T18:33:22;4.50;;;2.28;;
73893;SDS011;62699;50.534;12.784;2022-09-09T18:38:42;5.00;;;2.38;;
73893;SDS011;62699;50.534;12.784;2022-09-09T18:44:03;5.90;;;2.42;;
73893;SDS011;62699;50.534;12.784;2022-09-09T18:49:24;4.72;;;1.80;;
73893;SDS011;62699;50.534;12.784;2022-09-09T18:54:45;5.72;;;2.55;;
73893;SDS011;62699;50.534;12.784;2022-09-09T19:00:06;3.65;;;1.70;;
73893;SDS011;62699;50.534;12.784;2022-09-09T19:05:27;2.45;;;1.55;;
73893;SDS011;62699;50.534;12.784;2022-09-09T19:10:49;2.72;;;1.40;;
73893;SDS011;62699;50.534;12.784;2022-09-09T19:16:13;3.58;;;1.77;;
73893;SDS011;62699;50.534;12.784;2022-09-09T19:21:33;4.22;;;2.15;;
73893;SDS011;62699;50.534;12.784;2022-09-09T19:26:56;4.40;;;2.50;;
73893;SDS011;62699;50.534;12.784;2022-09-09T19:32:19;2.92;;;1.63;;
73893;SDS011;62699;50.534;12.784;2022-09-09T19:37:39;5.10;;;2.40;;
73893;SDS011;62699;50.534;12.784;2022-09-09T19:42:59;3.38;;;1.80;;
73893;SDS011;62699;50.534;12.784;2022-09-09T19:48:19;6.22;;;2.90;;
73893;SDS011;62699;50.534;12.784;2022-09-09T19:53:40;4.07;;;1.85;;
73893;SDS011;62699;50.534;12.784;2022-09-09T19:59:03;5.10;;;1.88;;
73893;SDS011;62699;50.534;12.784;2022-09-09T20:04:24;3.13;;;1.73;;
73893;SDS011;62699;50.534;12.784;2022-09-09T20:09:45;2.70;;;1.42;;
73893;SDS011;62699;50.534;12.784;2022-09-09T20:20:23;4.20;;;2.05;;
73893;SDS011;62699;50.534;12.784;2022-09-09T20:31:05;3.33;;;1.70;;
73893;SDS011;62699;50.534;12.784;2022-09-09T20:36:28;4.35;;;2.15;;
73893;SDS011;62699;50.534;12.784;2022-09-09T20:41:51;5.88;;;1.83;;
73893;SDS011;62699;50.534;12.784;2022-09-09T20:47:10;2.28;;;1.65;;
73893;SDS011;62699;50.534;12.784;2022-09-09T20:52:30;4.20;;;2.15;;
73893;SDS011;62699;50.534;12.784;2022-09-09T20:57:49;4.05;;;2.42;;
73893;SDS011;62699;50.534;12.784;2022-09-09T21:03:10;3.38;;;1.60;;
73893;SDS011;62699;50.534;12.784;2022-09-09T21:08:29;5.25;;;1.92;;
73893;SDS011;62699;50.534;12.784;2022-09-09T21:13:48;2.13;;;1.38;;
73893;SDS011;62699;50.534;12.784;2022-09-09T21:19:08;5.20;;;1.60;;
73893;SDS011;62699;50.534;12.784;2022-09-09T21:24:29;7.05;;;1.77;;
73893;SDS011;62699;50.534;12.784;2022-09-09T21:35:08;3.05;;;1.77;;
73893;SDS011;62699;50.534;12.784;2022-09-09T21:40:29;4.32;;;1.88;;
73893;SDS011;62699;50.534;12.784;2022-09-09T21:45:49;3.45;;;1.95;;
73893;SDS011;62699;50.534;12.784;2022-09-09T21:56:28;4.63;;;2.28;;
73893;SDS011;62699;50.534;12.784;2022-09-09T22:01:47;6.50;;;2.70;;
73893;SDS011;62699;50.534;12.784;2022-09-09T22:07:07;3.85;;;1.90;;
73893;SDS011;62699;50.534;12.784;2022-09-09T22:12:26;3.58;;;1.80;;
73893;SDS011;62699;50.534;12.784;2022-09-09T22:23:04;4.30;;;1.73;;
73893;SDS011;62699;50.534;12.784;2022-09-09T22:28:27;4.97;;;2.20;;
73893;SDS011;62699;50.534;12.784;2022-09-09T22:33:47;5.93;;;2.92;;
73893;SDS011;62699;50.534;12.784;2022-09-09T22:39:07;7.22;;;3.05;;
73893;SDS011;62699;50.534;12.784;2022-09-09T22:44:26;3.45;;;2.20;;
73893;SDS011;62699;50.534;12.784;2022-09-09T22:49:46;7.40;;;3.00;;
73893;SDS011;62699;50.534;12.784;2022-09-09T22:55:05;7.50;;;2.05;;
73893;SDS011;62699;50.534;12.784;2022-09-09T23:00:25;6.28;;;3.53;;
73893;SDS011;62699;50.534;12.784;2022-09-09T23:05:51;6.38;;;3.33;;
73893;SDS011;62699;50.534;12.784;2022-09-09T23:11:13;6.72;;;3.17;;
73893;SDS011;62699;50.534;12.784;2022-09-09T23:21:58;4.45;;;2.30;;
73893;SDS011;62699;50.534;12.784;2022-09-09T23:27:18;6.07;;;2.78;;
73893;SDS011;62699;50.534;12.784;2022-09-09T23:32:40;5.70;;;2.72;;
73893;SDS011;62699;50.534;12.784;2022-09-09T23:38:00;6.38;;;3.28;;
73893;SDS011;62699;50.534;12.784;2022-09-09T23:43:20;3.83;;;1.90;;
73893;SDS011;62699;50.534;12.784;2022-09-09T23:48:41;5.38;;;2.20;;
73893;SDS011;62699;50.534;12.784;2022-09-09T23:54:03;5.70;;;2.00;;
73893;SDS011;62699;50.534;12.784;2022-09-09T23:59:22;7.20;;;2.50;;
